Accueil
METAR-TAF:

METAR-TAF

Aéroports :

Aéroport de Grenoble Alpes Isère

Grenoble, France

latitude: 45-22N, longitude: 005-20E, altitude: 384 m

Observation

Le bulletin a été fait il y a 41 minutes, à 17:30 UTC
Vent 7 kt de sud-ouest
Température 19°C
Humidité 32%
Pression 1025 hPa
Visibilité 10 km ou plus
pas de nuages en-dessous de 1500 mètres et pas de cumulonimbus.

METAR: LFLS 071730Z AUTO 23007KT CAVOK 19/02 Q1025

Heure: 20:11 (18:11 UTC)

Prévision

Le bulletin a été fait il y a 34 heures et 11 minutes, à 08:00 UTC
Prévision valable du 06 à 09 UTC au 07 à 09 UTC
Vent 8 kt de sud-ouest
Visibilité 10 km ou plus
pas de nuages en-dessous de 1500 mètres et pas de cumulonimbus.
Evoluant progressivement
du 06 à 18 UTC au 06 à 20 UTC
Vent 8 kt de est

TAF: LFLS 060800Z 0609/0709 23008KT CAVOK BECMG 0618/0620 09008KT

Observations et prévisions météorologiques de plus de 4000 aéroports (messages METAR et TAF).

Les stations disponibles sont représentées par des disques jaunes et rouges sur la carte.

Passer la souris dessus pour voir le nom de la station.

Cliquer dessus pour voir les observations et prévisions météorologiques.

Pour changer de carte: cliquez sur les boutons verts avec une croix noire pour zoomer, sur le bouton vert avec un tiret pour effectuer un zoom arrière, ou sur les flèches vertes pour les cartes adjacentes.


METAR-TAF: